createdAt,value
2023-02-23T02:09:08.009Z,100.00
2023-02-23T02:11:54.396Z,100.00
2023-02-23T02:15:31.538Z,100.00
2023-02-23T12:58:19.234Z,100.00
2023-02-23T13:29:25.136Z,98.33
2023-02-23T13:31:52.239Z,95.24
2023-02-23T13:49:46.439Z,91.33
2023-02-23T13:52:21.093Z,90.90
2023-02-23T13:55:03.631Z,91.49
2023-02-23T13:57:35.647Z,92.03
2023-02-23T14:00:02.631Z,91.98
2023-02-23T14:02:43.644Z,92.29
2023-02-23T14:05:22.752Z,92.77
2023-02-23T14:07:53.325Z,90.41
2023-02-23T14:10:25.195Z,90.29
2023-02-23T14:13:13.097Z,89.54
2023-02-23T14:15:39.819Z,89.85
2023-02-23T14:18:21.418Z,88.74
2023-02-23T14:21:12.981Z,88.37
2023-02-23T14:23:42.532Z,86.45
2023-02-23T14:26:16.991Z,86.42
2023-02-23T14:28:49.145Z,87.43
2023-02-23T14:31:20.652Z,87.05
2023-02-23T14:33:49.661Z,87.37
2023-02-23T14:36:22.410Z,86.98
2023-02-23T14:39:01.264Z,85.73
2023-02-23T14:41:40.036Z,84.82
2023-02-23T14:44:41.295Z,84.32
2023-02-23T14:47:12.421Z,84.28
2023-02-23T14:49:44.216Z,84.42
2023-02-23T14:52:25.769Z,85.06
2023-02-23T14:55:13.093Z,85.92
2023-02-23T14:57:41.845Z,86.24
2023-02-23T15:00:15.059Z,86.89
2023-02-23T15:02:56.364Z,87.86
2023-02-23T15:05:25.722Z,88.55
2023-02-23T15:07:54.503Z,89.44
2023-02-23T15:10:43.212Z,90.25
2023-02-23T15:13:11.880Z,90.80
2023-02-23T15:15:45.538Z,90.91
2023-02-23T15:18:21.646Z,91.31
2023-02-23T15:20:48.909Z,91.54
2023-02-23T15:23:17.407Z,92.06
2023-02-23T15:25:48.020Z,90.65
2023-02-23T15:28:28.034Z,91.03
2023-02-23T15:30:56.559Z,91.35
2023-02-23T15:33:28.262Z,92.08
2023-02-23T15:36:07.198Z,92.18
2023-02-23T15:38:44.165Z,92.35
2023-02-23T15:41:26.682Z,92.99
2023-02-23T15:43:53.539Z,93.67
2023-02-23T15:46:27.081Z,94.03
